Time;durP1;ratioP1;P1;durP2;ratioP2;P2;SDS_P1;SDS_P2;PMS_P1;PMS_P2;Temp;Humidity;BMP_temperature;BMP_pressure;BME280_temperature;BME280_humidity;BME280_pressure;Samples;Min_cycle;Max_cycle;Signal;HPM_P1;HPM_P2
2022/11/10 00:01:06;;;;;;;1.08;0.75;;;;;;;;;;6152222;23;20021;-84
2022/11/10 00:03:35;;;;;;;5.40;0.40;;;;;;;;;;6153585;23;20028;-86
2022/11/10 00:06:04;;;;;;;1.23;1.05;;;;;;;;;;6154960;23;20028;-85
2022/11/10 00:08:32;;;;;;;1.45;0.60;;;;;;;;;;6154504;23;20018;-84
2022/11/10 00:11:05;;;;;;;0.95;0.75;;;;;;;;;;6152998;23;20022;-86
2022/11/10 00:16:59;;;;;;;0.52;0.50;;;;;;;;;;6153116;23;20018;-85
2022/11/10 00:19:10;;;;;;;1.48;0.95;;;;;;;;;;6154489;23;20026;-83
2022/11/10 00:21:39;;;;;;;1.65;0.85;;;;;;;;;;6152838;23;20017;-84
2022/11/10 00:24:07;;;;;;;0.55;0.47;;;;;;;;;;6152809;23;20022;-84
2022/11/10 00:26:35;;;;;;;0.98;0.55;;;;;;;;;;6152101;23;20026;-84
2022/11/10 00:29:05;;;;;;;1.08;0.63;;;;;;;;;;6154424;23;20029;-84
2022/11/10 00:31:33;;;;;;;2.05;0.57;;;;;;;;;;6154394;23;20036;-85
2022/11/10 00:34:02;;;;;;;1.00;0.47;;;;;;;;;;6155385;23;20022;-85
2022/11/10 00:36:30;;;;;;;1.15;0.68;;;;;;;;;;6153895;23;20029;-85
2022/11/10 00:38:58;;;;;;;2.17;1.02;;;;;;;;;;6154233;23;20317;-84
2022/11/10 00:41:27;;;;;;;0.70;0.50;;;;;;;;;;6154369;23;20029;-84
2022/11/10 00:43:55;;;;;;;0.60;0.40;;;;;;;;;;6154925;23;20026;-83
2022/11/10 00:46:25;;;;;;;0.77;0.77;;;;;;;;;;6154800;23;20030;-83
2022/11/10 00:48:53;;;;;;;0.68;0.47;;;;;;;;;;6153273;23;20017;-84
2022/11/10 00:51:22;;;;;;;0.50;0.50;;;;;;;;;;6153866;23;20021;-84
2022/11/10 00:53:51;;;;;;;1.98;0.40;;;;;;;;;;6154815;23;20024;-84
2022/11/10 00:56:19;;;;;;;1.17;0.77;;;;;;;;;;6154651;23;20104;-85
2022/11/10 00:58:48;;;;;;;0.25;0.25;;;;;;;;;;6154366;23;20025;-84
2022/11/10 01:01:17;;;;;;;0.28;0.28;;;;;;;;;;6153515;23;20030;-84
2022/11/10 01:03:47;;;;;;;0.68;0.28;;;;;;;;;;6154805;23;20076;-85
2022/11/10 01:06:16;;;;;;;1.77;0.40;;;;;;;;;;6154953;23;20022;-84
2022/11/10 01:08:45;;;;;;;1.42;1.00;;;;;;;;;;6154433;23;20029;-84
2022/11/10 01:11:14;;;;;;;0.80;0.43;;;;;;;;;;6154040;23;20020;-84
2022/11/10 01:13:43;;;;;;;0.82;0.47;;;;;;;;;;6154126;23;20032;-84
2022/11/10 01:16:12;;;;;;;0.85;0.40;;;;;;;;;;6152275;23;20021;-84
2022/11/10 01:18:41;;;;;;;0.75;0.45;;;;;;;;;;6153753;23;20045;-84
2022/11/10 01:21:11;;;;;;;1.15;0.45;;;;;;;;;;6153336;23;20505;-84
2022/11/10 01:23:39;;;;;;;2.13;0.47;;;;;;;;;;6155356;23;20040;-84
2022/11/10 01:26:11;;;;;;;0.68;0.40;;;;;;;;;;6153284;23;20032;-85
2022/11/10 01:28:39;;;;;;;1.48;0.43;;;;;;;;;;6153538;23;20029;-85
2022/11/10 01:31:08;;;;;;;1.50;0.50;;;;;;;;;;6153821;23;20429;-84
2022/11/10 01:33:37;;;;;;;0.55;0.55;;;;;;;;;;6155057;23;20080;-85
2022/11/10 01:36:06;;;;;;;1.23;0.60;;;;;;;;;;6153443;23;20094;-84
2022/11/10 01:38:36;;;;;;;1.45;0.50;;;;;;;;;;6153442;23;20029;-85
2022/11/10 01:41:06;;;;;;;1.30;0.50;;;;;;;;;;6153359;23;20028;-85
2022/11/10 01:43:35;;;;;;;0.32;0.30;;;;;;;;;;6154769;23;20030;-85
2022/11/10 01:46:05;;;;;;;0.47;0.43;;;;;;;;;;6154000;23;20022;-85
2022/11/10 01:48:34;;;;;;;0.32;0.30;;;;;;;;;;6151819;23;20339;-86
2022/11/10 01:51:04;;;;;;;1.40;0.50;;;;;;;;;;6153733;23;20021;-85
2022/11/10 01:53:35;;;;;;;0.63;0.30;;;;;;;;;;6154371;23;20025;-85
2022/11/10 01:56:06;;;;;;;0.20;0.20;;;;;;;;;;6154330;23;20096;-85
2022/11/10 01:58:38;;;;;;;0.50;0.28;;;;;;;;;;6154769;23;20022;-85
2022/11/10 02:01:07;;;;;;;0.20;0.20;;;;;;;;;;6153958;23;20032;-84
2022/11/10 02:03:39;;;;;;;1.13;0.40;;;;;;;;;;6156903;23;20026;-85
2022/11/10 02:06:08;;;;;;;0.30;0.30;;;;;;;;;;6160690;23;20025;-85
2022/11/10 02:08:37;;;;;;;1.63;0.52;;;;;;;;;;6158774;23;20237;-84
2022/11/10 02:11:07;;;;;;;1.40;0.47;;;;;;;;;;6158618;23;20013;-85
2022/11/10 02:13:35;;;;;;;0.38;0.32;;;;;;;;;;6160866;23;20022;-85
2022/11/10 02:16:03;;;;;;;0.77;0.32;;;;;;;;;;6157219;23;20028;-83
2022/11/10 02:18:32;;;;;;;0.60;0.30;;;;;;;;;;6164871;23;20022;-85
2022/11/10 02:21:03;;;;;;;0.50;0.40;;;;;;;;;;6164314;23;20022;-84
2022/11/10 02:23:46;;;;;;;0.98;0.60;;;;;;;;;;6162972;23;20022;-84
2022/11/10 02:26:15;;;;;;;0.10;0.10;;;;;;;;;;6164963;23;20452;-84
2022/11/10 02:28:43;;;;;;;0.68;0.30;;;;;;;;;;6160098;23;20018;-85
2022/11/10 02:31:12;;;;;;;0.13;0.13;;;;;;;;;;6153240;23;20018;-85
2022/11/10 02:33:40;;;;;;;0.47;0.47;;;;;;;;;;6153203;23;20025;-85
2022/11/10 02:36:10;;;;;;;0.17;0.10;;;;;;;;;;6152841;23;20026;-85
2022/11/10 02:38:38;;;;;;;0.65;0.10;;;;;;;;;;6153156;23;20037;-84
2022/11/10 02:41:06;;;;;;;1.08;0.35;;;;;;;;;;6152507;23;20101;-85
2022/11/10 02:43:36;;;;;;;0.40;0.25;;;;;;;;;;6152372;23;20343;-85
2022/11/10 02:46:04;;;;;;;0.10;0.10;;;;;;;;;;6153700;23;20049;-85
2022/11/10 02:48:33;;;;;;;0.10;0.10;;;;;;;;;;6153366;23;20018;-85
2022/11/10 02:51:01;;;;;;;0.10;0.10;;;;;;;;;;6152970;23;20017;-85
2022/11/10 02:53:31;;;;;;;0.20;0.20;;;;;;;;;;6152716;23;20022;-84
2022/11/10 02:55:59;;;;;;;0.35;0.35;;;;;;;;;;6152629;23;20021;-84
2022/11/10 02:58:28;;;;;;;0.03;0.03;;;;;;;;;;6153897;23;20036;-85
2022/11/10 03:00:56;;;;;;;0.43;0.20;;;;;;;;;;6152579;23;20024;-84
2022/11/10 03:03:24;;;;;;;0.10;0.10;;;;;;;;;;6152332;23;20021;-85
2022/11/10 03:05:53;;;;;;;0.20;0.10;;;;;;;;;;6153325;23;20055;-85
2022/11/10 03:08:21;;;;;;;1.80;0.40;;;;;;;;;;6153007;23;20032;-85
2022/11/10 03:10:53;;;;;;;0.10;0.10;;;;;;;;;;6151929;23;20021;-84
2022/11/10 03:13:21;;;;;;;0.95;0.25;;;;;;;;;;6153168;23;20021;-85
2022/11/10 03:15:50;;;;;;;2.65;0.57;;;;;;;;;;6154014;23;20021;-85
2022/11/10 03:18:19;;;;;;;0.70;0.47;;;;;;;;;;6152759;23;20027;-85
2022/11/10 03:20:48;;;;;;;1.10;0.30;;;;;;;;;;6151957;23;20100;-85
2022/11/10 03:23:17;;;;;;;0.60;0.38;;;;;;;;;;6152382;23;20024;-85
2022/11/10 03:25:45;;;;;;;0.40;0.20;;;;;;;;;;6153407;23;20076;-85
2022/11/10 03:28:15;;;;;;;0.03;0.03;;;;;;;;;;6152944;23;20022;-85
2022/11/10 03:30:44;;;;;;;0.20;0.20;;;;;;;;;;6151665;23;20029;-85
2022/11/10 03:33:12;;;;;;;0.10;0.10;;;;;;;;;;6152928;23;20021;-84
2022/11/10 03:35:40;;;;;;;0.70;0.63;;;;;;;;;;6152227;23;20044;-85
2022/11/10 03:38:09;;;;;;;0.32;0.30;;;;;;;;;;6151719;23;20100;-84
2022/11/10 03:40:37;;;;;;;0.15;0.15;;;;;;;;;;6150737;23;20028;-85
2022/11/10 03:43:27;;;;;;;0.73;0.10;;;;;;;;;;6153774;23;20076;-85
2022/11/10 03:45:55;;;;;;;0.20;0.20;;;;;;;;;;6153101;23;20028;-84
2022/11/10 03:48:23;;;;;;;0.30;0.28;;;;;;;;;;6152905;23;20347;-85
2022/11/10 03:50:51;;;;;;;0.20;0.20;;;;;;;;;;6151946;23;20085;-84
2022/11/10 03:53:20;;;;;;;0.20;0.20;;;;;;;;;;6153571;23;20026;-84
2022/11/10 03:55:48;;;;;;;0.68;0.55;;;;;;;;;;6152778;23;20080;-84
2022/11/10 03:58:17;;;;;;;0.10;0.10;;;;;;;;;;6153569;23;20021;-85
2022/11/10 04:00:46;;;;;;;2.40;0.52;;;;;;;;;;6151599;23;20040;-86
2022/11/10 04:03:15;;;;;;;0.25;0.25;;;;;;;;;;6153509;23;20367;-85
2022/11/10 04:15:40;;;;;;;5.65;0.32;;;;;;;;;;6154454;23;20025;-84
2022/11/10 04:16:54;;;;;;;0.75;0.75;;;;;;;;;;6153690;23;20359;-84
2022/11/10 04:19:22;;;;;;;0.10;0.10;;;;;;;;;;6155044;23;20032;-85
2022/11/10 04:21:51;;;;;;;0.57;0.40;;;;;;;;;;6154086;23;20026;-84
2022/11/10 04:24:19;;;;;;;1.15;0.52;;;;;;;;;;6153952;23;20355;-85
2022/11/10 04:26:47;;;;;;;0.40;0.20;;;;;;;;;;6154922;23;20021;-83
2022/11/10 04:29:16;;;;;;;0.93;0.82;;;;;;;;;;6154482;23;20026;-84
2022/11/10 04:31:45;;;;;;;5.30;0.38;;;;;;;;;;6153618;23;20451;-84
2022/11/10 04:34:15;;;;;;;0.17;0.15;;;;;;;;;;6154860;23;20022;-84
2022/11/10 04:36:44;;;;;;;0.20;0.20;;;;;;;;;;6154171;23;20025;-84
2022/11/10 04:39:13;;;;;;;0.70;0.10;;;;;;;;;;6154849;23;20021;-85
2022/11/10 04:41:41;;;;;;;0.28;0.20;;;;;;;;;;6154318;23;20021;-85
2022/11/10 04:44:09;;;;;;;1.38;0.30;;;;;;;;;;6154451;23;20104;-85
2022/11/10 04:46:38;;;;;;;1.20;0.43;;;;;;;;;;6154814;23;20078;-84
2022/11/10 04:49:07;;;;;;;0.13;0.10;;;;;;;;;;6155260;23;20024;-84
2022/11/10 04:51:38;;;;;;;0.08;0.08;;;;;;;;;;6151841;23;20022;-85
2022/11/10 04:54:07;;;;;;;1.45;0.38;;;;;;;;;;6155539;23;20022;-86
2022/11/10 04:56:36;;;;;;;0.10;0.10;;;;;;;;;;6154067;23;20023;-86
2022/11/10 04:59:04;;;;;;;0.95;0.20;;;;;;;;;;6154958;23;20031;-84
2022/11/10 05:01:32;;;;;;;4.95;0.50;;;;;;;;;;6153456;23;20473;-85
2022/11/10 05:04:01;;;;;;;0.20;0.20;;;;;;;;;;6153151;23;20466;-84
2022/11/10 05:06:29;;;;;;;1.65;0.50;;;;;;;;;;6153065;23;20025;-84
2022/11/10 05:08:59;;;;;;;0.50;0.32;;;;;;;;;;6154254;23;20436;-84
2022/11/10 05:11:28;;;;;;;0.47;0.30;;;;;;;;;;6152194;23;20025;-85
2022/11/10 05:13:56;;;;;;;0.30;0.20;;;;;;;;;;6154582;23;20017;-84
2022/11/10 05:16:24;;;;;;;8.15;0.40;;;;;;;;;;6153803;23;20018;-85
2022/11/10 05:18:54;;;;;;;0.20;0.20;;;;;;;;;;6154785;23;20021;-84
2022/11/10 05:21:23;;;;;;;0.60;0.50;;;;;;;;;;6152607;23;20486;-85
2022/11/10 05:23:51;;;;;;;0.32;0.30;;;;;;;;;;6154458;23;20076;-85
2022/11/10 05:26:21;;;;;;;0.17;0.05;;;;;;;;;;6151275;23;20028;-86
2022/11/10 05:28:49;;;;;;;0.17;0.17;;;;;;;;;;6155525;23;20032;-85
2022/11/10 05:31:17;;;;;;;0.98;0.30;;;;;;;;;;6152717;23;20482;-84
2022/11/10 05:33:46;;;;;;;3.03;0.35;;;;;;;;;;6153249;23;20028;-88
2022/11/10 05:36:14;;;;;;;2.50;0.30;;;;;;;;;;6154022;23;20451;-87
2022/11/10 05:38:52;;;;;;;0.38;0.25;;;;;;;;;;6153905;23;20453;-87
2022/11/10 05:41:22;;;;;;;3.97;0.35;;;;;;;;;;6152968;23;20482;-86
2022/11/10 05:43:50;;;;;;;0.05;0.05;;;;;;;;;;6154141;23;20028;-89
2022/11/10 05:46:18;;;;;;;0.20;0.20;;;;;;;;;;6151426;23;20052;-82
2022/11/10 05:48:47;;;;;;;1.45;0.40;;;;;;;;;;6153284;23;20463;-86
2022/11/10 05:51:15;;;;;;;0.52;0.20;;;;;;;;;;6152262;23;20021;-82
2022/11/10 05:53:44;;;;;;;3.15;0.77;;;;;;;;;;6152019;23;20022;-83
2022/11/10 05:56:12;;;;;;;0.43;0.43;;;;;;;;;;6155427;23;20017;-83
2022/11/10 05:58:43;;;;;;;1.67;0.40;;;;;;;;;;6154290;23;20324;-83
2022/11/10 06:01:11;;;;;;;0.30;0.10;;;;;;;;;;6150781;23;20028;-86
2022/11/10 06:03:39;;;;;;;2.08;0.60;;;;;;;;;;6154046;23;20395;-83
2022/11/10 06:06:08;;;;;;;0.10;0.10;;;;;;;;;;6152214;23;20057;-83
2022/11/10 06:08:36;;;;;;;1.10;0.30;;;;;;;;;;6151209;23;20037;-82
2022/11/10 06:11:05;;;;;;;0.52;0.30;;;;;;;;;;6151130;23;20017;-83
2022/11/10 06:13:33;;;;;;;0.30;0.20;;;;;;;;;;6153811;23;20447;-83
2022/11/10 06:16:02;;;;;;;0.10;0.10;;;;;;;;;;6152303;23;20033;-83
2022/11/10 06:18:31;;;;;;;1.73;0.43;;;;;;;;;;6151637;23;20478;-83
2022/11/10 06:20:59;;;;;;;0.90;0.45;;;;;;;;;;6150493;23;20021;-85
2022/11/10 06:23:28;;;;;;;0.15;0.10;;;;;;;;;;6149850;23;20021;-83
2022/11/10 06:25:57;;;;;;;0.15;0.15;;;;;;;;;;6152193;23;20025;-83
2022/11/10 06:28:25;;;;;;;0.47;0.47;;;;;;;;;;6153543;23;20036;-83
2022/11/10 06:30:53;;;;;;;1.00;0.75;;;;;;;;;;6153397;23;20025;-83
2022/11/10 06:33:23;;;;;;;0.35;0.30;;;;;;;;;;6151919;23;20024;-83
2022/11/10 06:35:52;;;;;;;1.02;0.60;;;;;;;;;;6151726;23;20028;-83
2022/11/10 06:38:21;;;;;;;2.20;0.57;;;;;;;;;;6152220;23;20040;-86
2022/11/10 06:40:49;;;;;;;3.88;0.63;;;;;;;;;;6152447;23;20025;-87
2022/11/10 06:43:17;;;;;;;0.47;0.45;;;;;;;;;;6152741;23;20041;-86
2022/11/10 06:45:45;;;;;;;1.15;0.22;;;;;;;;;;6152898;23;20026;-87
2022/11/10 06:48:14;;;;;;;1.95;0.88;;;;;;;;;;6153006;23;20028;-87
2022/11/10 06:50:44;;;;;;;0.60;0.22;;;;;;;;;;6152810;23;20320;-87
2022/11/10 06:53:12;;;;;;;2.33;0.50;;;;;;;;;;6156007;23;20025;-87
2022/11/10 06:55:40;;;;;;;0.20;0.20;;;;;;;;;;6154410;23;20095;-87
2022/11/10 06:58:09;;;;;;;0.43;0.35;;;;;;;;;;6153252;23;20469;-86
2022/11/10 07:00:39;;;;;;;3.45;1.10;;;;;;;;;;6153987;23;20166;-86
2022/11/10 07:03:08;;;;;;;0.50;0.25;;;;;;;;;;6154413;23;20085;-87
2022/11/10 07:05:37;;;;;;;0.30;0.30;;;;;;;;;;6153957;23;20172;-86
2022/11/10 07:08:08;;;;;;;0.40;0.30;;;;;;;;;;6154310;23;20321;-86
2022/11/10 07:10:37;;;;;;;0.28;0.28;;;;;;;;;;6152891;23;20451;-87
2022/11/10 07:13:06;;;;;;;1.08;0.40;;;;;;;;;;6154105;23;20100;-86
2022/11/10 07:15:34;;;;;;;0.90;0.40;;;;;;;;;;6153708;23;20029;-86
2022/11/10 07:18:02;;;;;;;0.20;0.20;;;;;;;;;;6154079;23;20100;-86
2022/11/10 07:20:31;;;;;;;1.27;0.47;;;;;;;;;;6154280;23;20017;-86
2022/11/10 07:23:00;;;;;;;1.52;0.45;;;;;;;;;;6153542;23;20021;-87
2022/11/10 07:25:30;;;;;;;0.82;0.55;;;;;;;;;;6153879;23;20105;-87
2022/11/10 07:27:59;;;;;;;0.28;0.20;;;;;;;;;;6153441;23;20109;-87
2022/11/10 07:30:28;;;;;;;0.52;0.43;;;;;;;;;;6154901;23;20049;-87
2022/11/10 07:33:01;;;;;;;1.00;0.65;;;;;;;;;;6152859;23;20056;-86
2022/11/10 07:35:29;;;;;;;0.52;0.52;;;;;;;;;;6154045;23;20576;-86
2022/11/10 07:37:58;;;;;;;0.77;0.45;;;;;;;;;;6153265;23;20045;-86
2022/11/10 07:40:27;;;;;;;6.00;0.95;;;;;;;;;;6153058;23;20028;-87
2022/11/10 07:42:57;;;;;;;2.53;1.00;;;;;;;;;;6152962;23;20052;-86
2022/11/10 07:45:25;;;;;;;2.38;0.40;;;;;;;;;;6153115;23;20025;-87
2022/11/10 07:47:58;;;;;;;6.22;0.90;;;;;;;;;;6154436;23;20021;-87
2022/11/10 07:50:27;;;;;;;0.43;0.40;;;;;;;;;;6154314;23;20028;-87
2022/11/10 07:53:02;;;;;;;0.63;0.50;;;;;;;;;;6151806;23;20053;-87
2022/11/10 07:55:31;;;;;;;0.70;0.60;;;;;;;;;;6153388;23;20021;-86
2022/11/10 07:58:01;;;;;;;0.98;0.60;;;;;;;;;;6152791;23;20036;-87
2022/11/10 08:00:29;;;;;;;1.08;0.52;;;;;;;;;;6154350;23;20080;-87
2022/11/10 08:03:01;;;;;;;0.45;0.45;;;;;;;;;;6137267;23;20410;-87
2022/11/10 08:05:30;;;;;;;3.15;0.80;;;;;;;;;;6153561;23;20455;-87
2022/11/10 08:07:58;;;;;;;1.77;0.32;;;;;;;;;;6150255;23;20029;-86
2022/11/10 08:10:27;;;;;;;0.40;0.40;;;;;;;;;;6153442;23;20026;-86
2022/11/10 08:12:56;;;;;;;1.20;0.75;;;;;;;;;;6152098;23;20076;-87
2022/11/10 08:15:27;;;;;;;1.20;0.85;;;;;;;;;;6153199;23;20125;-87
2022/11/10 08:17:59;;;;;;;1.88;0.45;;;;;;;;;;6154406;23;20036;-87
2022/11/10 08:20:28;;;;;;;1.15;0.47;;;;;;;;;;6156032;23;20057;-89
2022/11/10 08:23:00;;;;;;;1.20;0.60;;;;;;;;;;6167249;23;20037;-93
2022/11/10 08:25:30;;;;;;;0.43;0.40;;;;;;;;;;6176157;23;20029;-88
2022/11/10 08:28:03;;;;;;;0.95;0.68;;;;;;;;;;6171987;23;20022;-89
2022/11/10 08:30:33;;;;;;;1.23;0.60;;;;;;;;;;6177689;23;20021;-89
2022/11/10 08:33:03;;;;;;;0.57;0.40;;;;;;;;;;6128024;23;20042;-87
2022/11/10 08:35:32;;;;;;;4.57;0.50;;;;;;;;;;6179309;23;20052;-87
2022/11/10 08:38:07;;;;;;;0.82;0.50;;;;;;;;;;6177059;23;20065;-89
2022/11/10 08:40:37;;;;;;;0.57;0.40;;;;;;;;;;6160018;23;20032;-93
2022/11/10 08:43:07;;;;;;;1.67;0.65;;;;;;;;;;6156811;23;20077;-94
2022/11/10 08:45:38;;;;;;;0.65;0.35;;;;;;;;;;6153926;23;20029;-88
2022/11/10 08:48:07;;;;;;;2.28;1.00;;;;;;;;;;6153207;23;20470;-88
2022/11/10 08:50:35;;;;;;;0.55;0.50;;;;;;;;;;6152051;23;20030;-90
2022/11/10 08:53:04;;;;;;;0.32;0.22;;;;;;;;;;6156088;23;20351;-89
2022/11/10 08:55:34;;;;;;;3.45;0.68;;;;;;;;;;6154934;23;20081;-89
2022/11/10 08:58:03;;;;;;;0.80;0.40;;;;;;;;;;6154820;23;20021;-88
2022/11/10 09:00:32;;;;;;;1.80;0.63;;;;;;;;;;6155719;23;20033;-87
2022/11/10 09:03:05;;;;;;;0.80;0.57;;;;;;;;;;6155689;23;20080;-89
2022/11/10 09:05:35;;;;;;;1.05;0.52;;;;;;;;;;6156954;23;20057;-88
2022/11/10 09:08:04;;;;;;;0.43;0.43;;;;;;;;;;6156895;23;20025;-90
2022/11/10 09:10:33;;;;;;;1.92;0.68;;;;;;;;;;6153866;23;20072;-87
2022/11/10 09:13:02;;;;;;;1.60;0.80;;;;;;;;;;6155971;23;20026;-88
2022/11/10 09:15:32;;;;;;;5.95;0.90;;;;;;;;;;6157564;23;20529;-89
2022/11/10 09:18:05;;;;;;;0.98;0.50;;;;;;;;;;6156377;23;20018;-89
2022/11/10 09:20:35;;;;;;;1.88;0.50;;;;;;;;;;6153601;23;20025;-88
2022/11/10 09:23:05;;;;;;;0.60;0.50;;;;;;;;;;6155741;23;20489;-89
2022/11/10 09:25:34;;;;;;;1.60;0.40;;;;;;;;;;6154199;23;20471;-89
2022/11/10 09:28:02;;;;;;;1.52;1.42;;;;;;;;;;6155168;23;20113;-89
2022/11/10 09:30:31;;;;;;;0.30;0.30;;;;;;;;;;6155585;23;20022;-89
2022/11/10 09:33:00;;;;;;;0.30;0.30;;;;;;;;;;6153732;23;20462;-89
2022/11/10 09:35:30;;;;;;;1.40;0.60;;;;;;;;;;6155712;23;20060;-88
2022/11/10 09:37:58;;;;;;;0.50;0.40;;;;;;;;;;6155353;23;20026;-88
2022/11/10 09:40:32;;;;;;;0.75;0.68;;;;;;;;;;6154683;23;20181;-89
2022/11/10 09:43:02;;;;;;;4.45;0.30;;;;;;;;;;6155201;23;20463;-88
2022/11/10 09:45:33;;;;;;;0.65;0.38;;;;;;;;;;6154113;23;20026;-88
2022/11/10 09:48:08;;;;;;;0.45;0.43;;;;;;;;;;6156052;23;20462;-88
2022/11/10 09:50:42;;;;;;;0.13;0.13;;;;;;;;;;6155311;23;20033;-89
2022/11/10 09:53:13;;;;;;;1.55;0.60;;;;;;;;;;6157306;23;20029;-91
2022/11/10 09:55:43;;;;;;;0.60;0.50;;;;;;;;;;6157152;23;20021;-90
2022/11/10 09:58:13;;;;;;;8.50;0.82;;;;;;;;;;6168757;23;20021;-90
2022/11/10 10:00:43;;;;;;;2.95;0.80;;;;;;;;;;6175317;23;20013;-89
2022/11/10 10:03:15;;;;;;;3.65;0.47;;;;;;;;;;6176668;23;20009;-89
2022/11/10 10:05:55;;;;;;;1.05;0.50;;;;;;;;;;6176783;23;20077;-89
2022/11/10 10:08:27;;;;;;;0.40;0.40;;;;;;;;;;6175163;23;20025;-88
2022/11/10 10:11:01;;;;;;;0.35;0.22;;;;;;;;;;6167647;23;20017;-89
2022/11/10 10:13:45;;;;;;;0.30;0.27;;;;;;;;;;6159817;23;20447;-90
2022/11/10 10:16:17;;;;;;;1.43;0.57;;;;;;;;;;6158159;23;20025;-90
2022/11/10 10:18:51;;;;;;;0.75;0.75;;;;;;;;;;6159327;23;20104;-90
2022/11/10 10:21:31;;;;;;;0.68;0.35;;;;;;;;;;6156506;23;20105;-90
2022/11/10 10:24:01;;;;;;;0.30;0.30;;;;;;;;;;6155213;23;20022;-90
2022/11/10 10:26:40;;;;;;;1.17;1.08;;;;;;;;;;6156064;23;20096;-90
2022/11/10 10:29:10;;;;;;;3.17;0.20;;;;;;;;;;6155191;23;20053;-91
2022/11/10 10:31:41;;;;;;;0.30;0.20;;;;;;;;;;6154247;23;20550;-90
2022/11/10 10:34:14;;;;;;;0.20;0.20;;;;;;;;;;6154328;23;20028;-89
2022/11/10 10:36:45;;;;;;;0.90;0.45;;;;;;;;;;6155061;23;20025;-90
2022/11/10 10:39:16;;;;;;;1.10;0.93;;;;;;;;;;6155465;23;20097;-90
2022/11/10 10:41:45;;;;;;;1.10;0.40;;;;;;;;;;6154058;23;20096;-90
2022/11/10 10:44:14;;;;;;;0.20;0.20;;;;;;;;;;6154188;23;20036;-90
2022/11/10 10:46:49;;;;;;;0.50;0.32;;;;;;;;;;6155229;23;20096;-91
2022/11/10 10:49:20;;;;;;;0.38;0.38;;;;;;;;;;6154672;23;20025;-90
2022/11/10 10:52:10;;;;;;;1.05;0.73;;;;;;;;;;6155163;23;20025;-90
2022/11/10 10:54:39;;;;;;;0.35;0.35;;;;;;;;;;6155000;23;20040;-90
2022/11/10 10:57:20;;;;;;;0.20;0.20;;;;;;;;;;6153995;23;20557;-90
2022/11/10 10:59:49;;;;;;;3.88;0.68;;;;;;;;;;6155259;23;20021;-90
2022/11/10 11:02:25;;;;;;;0.10;0.10;;;;;;;;;;6154763;23;20068;-90
2022/11/10 11:05:10;;;;;;;0.20;0.20;;;;;;;;;;6155175;23;20021;-90
2022/11/10 11:07:40;;;;;;;1.23;0.50;;;;;;;;;;6154745;23;20025;-90
2022/11/10 11:10:19;;;;;;;0.77;0.22;;;;;;;;;;6154555;23;20177;-90
2022/11/10 11:12:47;;;;;;;1.42;0.82;;;;;;;;;;6154275;23;20021;-90
2022/11/10 11:15:21;;;;;;;1.58;0.50;;;;;;;;;;6155013;23;20450;-89
2022/11/10 11:17:56;;;;;;;0.63;0.43;;;;;;;;;;6153785;23;20537;-90
2022/11/10 11:20:29;;;;;;;0.35;0.30;;;;;;;;;;6154931;23;20026;-90
2022/11/10 11:23:01;;;;;;;0.22;0.22;;;;;;;;;;6154691;23;20028;-90
2022/11/10 11:25:34;;;;;;;0.68;0.52;;;;;;;;;;6155263;23;20049;-89
2022/11/10 11:28:09;;;;;;;0.47;0.43;;;;;;;;;;6154507;23;20550;-89
2022/11/10 11:30:45;;;;;;;0.55;0.35;;;;;;;;;;6153873;23;20032;-90
2022/11/10 11:33:16;;;;;;;1.35;0.70;;;;;;;;;;6154494;23;20024;-89
2022/11/10 11:35:47;;;;;;;0.40;0.22;;;;;;;;;;6154580;23;20355;-89
2022/11/10 11:38:17;;;;;;;4.32;0.55;;;;;;;;;;6155584;23;20069;-90
2022/11/10 11:40:52;;;;;;;1.20;0.30;;;;;;;;;;6154441;23;20036;-89
2022/11/10 11:43:28;;;;;;;0.30;0.30;;;;;;;;;;6153650;23;20021;-89
2022/11/10 11:46:00;;;;;;;0.20;0.20;;;;;;;;;;6154738;23;20111;-89
2022/11/10 11:48:46;;;;;;;1.17;0.20;;;;;;;;;;6154070;23;20022;-88
2022/11/10 11:51:19;;;;;;;0.40;0.20;;;;;;;;;;6135347;23;20025;-90
2022/11/10 11:53:58;;;;;;;0.10;0.10;;;;;;;;;;6154273;23;20033;-89
2022/11/10 11:56:28;;;;;;;0.20;0.20;;;;;;;;;;6151019;23;20021;-89
2022/11/10 11:59:02;;;;;;;0.80;0.32;;;;;;;;;;6154224;23;20026;-89
2022/11/10 12:01:48;;;;;;;0.40;0.30;;;;;;;;;;6137772;23;20026;-89
2022/11/10 12:04:23;;;;;;;0.35;0.20;;;;;;;;;;6154633;23;20049;-89
2022/11/10 12:06:58;;;;;;;0.40;0.40;;;;;;;;;;6154014;23;20021;-88
2022/11/10 12:09:32;;;;;;;4.43;0.20;;;;;;;;;;6155646;23;20049;-89
2022/11/10 12:12:08;;;;;;;0.10;0.10;;;;;;;;;;6155546;23;20029;-89
2022/11/10 12:14:41;;;;;;;0.17;0.10;;;;;;;;;;6157916;23;20067;-89
2022/11/10 12:17:13;;;;;;;0.20;0.20;;;;;;;;;;6171385;23;20005;-90
2022/11/10 12:19:45;;;;;;;0.22;0.22;;;;;;;;;;6173430;23;20021;-89
2022/11/10 12:22:22;;;;;;;0.20;0.20;;;;;;;;;;6173863;23;20026;-89
2022/11/10 12:24:56;;;;;;;1.67;0.30;;;;;;;;;;6173770;23;20465;-89
2022/11/10 12:27:26;;;;;;;0.32;0.10;;;;;;;;;;6171212;23;20025;-89
2022/11/10 12:29:57;;;;;;;0.10;0.10;;;;;;;;;;6180285;23;20074;-88
2022/11/10 12:32:27;;;;;;;1.25;0.25;;;;;;;;;;6165737;23;20025;-89
2022/11/10 12:34:58;;;;;;;0.13;0.13;;;;;;;;;;6157041;23;20049;-90
2022/11/10 12:37:29;;;;;;;0.20;0.20;;;;;;;;;;6156037;23;20021;-90
2022/11/10 12:40:02;;;;;;;0.75;0.30;;;;;;;;;;6155354;23;20115;-90
2022/11/10 12:42:32;;;;;;;0.63;0.20;;;;;;;;;;6155520;23;20026;-90
2022/11/10 12:45:02;;;;;;;0.20;0.20;;;;;;;;;;6156378;23;20025;-89
2022/11/10 12:47:34;;;;;;;0.10;0.10;;;;;;;;;;6158746;23;20023;-89
2022/11/10 12:50:09;;;;;;;0.30;0.13;;;;;;;;;;6156099;23;20403;-88
2022/11/10 12:52:44;;;;;;;1.75;0.30;;;;;;;;;;6156386;23;20362;-90
2022/11/10 12:55:14;;;;;;;0.35;0.30;;;;;;;;;;6154164;23;20101;-90
2022/11/10 12:57:44;;;;;;;0.28;0.28;;;;;;;;;;6155831;23;20045;-90
2022/11/10 13:00:27;;;;;;;0.17;0.17;;;;;;;;;;6154878;23;20024;-91
2022/11/10 13:02:57;;;;;;;0.38;0.30;;;;;;;;;;6151370;23;20021;-89
2022/11/10 13:05:37;;;;;;;0.55;0.45;;;;;;;;;;6155721;23;20018;-90
2022/11/10 13:08:09;;;;;;;0.30;0.25;;;;;;;;;;6158432;23;20017;-90
2022/11/10 13:10:47;;;;;;;0.45;0.40;;;;;;;;;;6154508;23;20096;-89
2022/11/10 13:13:18;;;;;;;0.20;0.20;;;;;;;;;;6156329;23;20026;-90
2022/11/10 13:15:51;;;;;;;0.77;0.28;;;;;;;;;;6157178;23;20029;-90
2022/11/10 13:18:23;;;;;;;0.32;0.20;;;;;;;;;;6155134;23;20331;-90
2022/11/10 13:20:53;;;;;;;0.13;0.13;;;;;;;;;;6155224;23;20451;-90
2022/11/10 13:23:25;;;;;;;0.10;0.10;;;;;;;;;;6155711;23;20028;-89
2022/11/10 13:25:57;;;;;;;0.17;0.17;;;;;;;;;;6157294;23;20024;-90
2022/11/10 13:28:45;;;;;;;0.30;0.30;;;;;;;;;;6156161;23;20057;-91
2022/11/10 13:31:31;;;;;;;0.17;0.17;;;;;;;;;;6155798;23;20025;-90
2022/11/10 13:34:06;;;;;;;0.60;0.20;;;;;;;;;;6158341;23;20028;-91
2022/11/10 13:36:40;;;;;;;1.55;0.35;;;;;;;;;;6158617;23;20052;-90
2022/11/10 13:39:11;;;;;;;;;;;;;;;;;;6156413;23;20076;-90
2022/11/10 13:41:49;;;;;;;0.20;0.20;;;;;;;;;;6154750;23;20226;-90
2022/11/10 13:44:22;;;;;;;0.57;0.40;;;;;;;;;;6154758;23;20085;-89
2022/11/10 13:47:03;;;;;;;0.15;0.15;;;;;;;;;;6155661;23;20089;-89
2022/11/10 13:49:38;;;;;;;3.38;0.57;;;;;;;;;;6155515;23;20017;-89
2022/11/10 13:52:11;;;;;;;0.47;0.17;;;;;;;;;;6154403;23;20032;-89
2022/11/10 13:54:50;;;;;;;0.00;0.00;;;;;;;;;;6155641;23;20401;-89
2022/11/10 13:57:25;;;;;;;0.13;0.13;;;;;;;;;;6155473;23;20021;-89
2022/11/10 13:59:55;;;;;;;1.10;0.85;;;;;;;;;;6155408;23;20398;-90
2022/11/10 14:02:42;;;;;;;2.92;0.57;;;;;;;;;;6153943;23;20346;-90
2022/11/10 14:05:33;;;;;;;0.10;0.10;;;;;;;;;;6155241;23;20061;-90
2022/11/10 14:08:04;;;;;;;0.47;0.38;;;;;;;;;;6155351;23;20462;-90
2022/11/10 14:10:36;;;;;;;3.67;0.28;;;;;;;;;;6155780;23;20032;-90
2022/11/10 14:13:07;;;;;;;0.20;0.20;;;;;;;;;;6127155;23;20025;-90
2022/11/10 14:15:39;;;;;;;0.30;0.30;;;;;;;;;;6153042;23;20021;-90
2022/11/10 14:18:18;;;;;;;0.10;0.10;;;;;;;;;;6155855;23;20052;-90
2022/11/10 14:20:47;;;;;;;0.47;0.35;;;;;;;;;;6153306;23;20025;-90
2022/11/10 14:23:18;;;;;;;2.30;0.88;;;;;;;;;;6154361;23;20133;-90
2022/11/10 14:25:54;;;;;;;0.20;0.20;;;;;;;;;;6155281;23;20018;-90
2022/11/10 14:28:28;;;;;;;1.88;1.10;;;;;;;;;;6156507;23;20045;-89
2022/11/10 14:30:58;;;;;;;0.95;0.25;;;;;;;;;;6155816;23;20068;-90
2022/11/10 14:33:27;;;;;;;1.50;0.30;;;;;;;;;;6154228;23;20052;-89
2022/11/10 14:35:58;;;;;;;0.10;0.10;;;;;;;;;;6155140;23;20100;-89
2022/11/10 14:38:30;;;;;;;0.32;0.30;;;;;;;;;;6150701;23;21291;-70
2022/11/10 14:40:59;;;;;;;0.00;0.00;;;;;;;;;;6122900;23;20073;-70
2022/11/10 14:43:30;;;;;;;0.10;0.10;;;;;;;;;;6123704;23;20082;-70
2022/11/10 14:45:59;;;;;;;0.20;0.20;;;;;;;;;;6124570;23;20348;-70
2022/11/10 14:48:29;;;;;;;1.98;0.38;;;;;;;;;;6123153;23;20113;-70
2022/11/10 14:51:02;;;;;;;0.32;0.20;;;;;;;;;;6122085;23;20101;-71
2022/11/10 14:53:33;;;;;;;0.22;0.22;;;;;;;;;;6123810;23;20040;-71
2022/11/10 14:56:03;;;;;;;0.63;0.22;;;;;;;;;;6123730;23;20497;-71
2022/11/10 14:58:35;;;;;;;0.10;0.10;;;;;;;;;;6124403;23;20022;-70
2022/11/10 15:01:04;;;;;;;0.38;0.38;;;;;;;;;;6122842;23;20418;-70
2022/11/10 15:03:35;;;;;;;0.17;0.10;;;;;;;;;;6122379;23;20018;-71
2022/11/10 15:06:04;;;;;;;0.10;0.10;;;;;;;;;;6123091;23;20108;-70
2022/11/10 15:08:33;;;;;;;0.25;0.15;;;;;;;;;;6123652;23;20022;-70
2022/11/10 15:11:01;;;;;;;1.13;0.80;;;;;;;;;;6122323;23;20477;-71
2022/11/10 15:13:38;;;;;;;0.25;0.25;;;;;;;;;;6123687;23;20031;-70
2022/11/10 15:16:21;;;;;;;0.57;0.40;;;;;;;;;;6123232;23;20029;-70